createdAt,value
2019-01-28T00:01:13.124Z,1.93
2019-01-28T00:03:42.833Z,2.10
2019-01-28T00:06:12.202Z,2.43
2019-01-28T00:08:42.353Z,2.53
2019-01-28T00:11:11.456Z,2.20
2019-01-28T00:13:40.750Z,2.23
2019-01-28T00:16:10.464Z,2.03
2019-01-28T00:18:39.493Z,2.47
2019-01-28T00:21:08.880Z,2.47
2019-01-28T00:23:37.965Z,2.27
2019-01-28T00:26:06.969Z,1.90
2019-01-28T00:28:36.510Z,2.83
2019-01-28T00:31:05.994Z,2.07
2019-01-28T00:33:35.066Z,2.67
2019-01-28T00:36:04.071Z,2.30
2019-01-28T00:38:33.450Z,2.60
2019-01-28T00:41:02.461Z,2.33
2019-01-28T00:43:32.135Z,2.20
2019-01-28T00:46:01.184Z,2.50
2019-01-28T00:48:30.567Z,2.70
2019-01-28T00:50:59.628Z,2.17
2019-01-28T00:53:28.675Z,2.63
2019-01-28T00:55:57.708Z,2.67
2019-01-28T00:58:26.741Z,2.67
2019-01-28T01:00:55.793Z,2.37
2019-01-28T01:03:26.435Z,2.50
2019-01-28T01:05:55.735Z,2.20
2019-01-28T01:08:26.373Z,1.97
2019-01-28T01:10:55.421Z,2.27
2019-01-28T01:13:24.433Z,2.60
2019-01-28T01:15:53.491Z,2.23
2019-01-28T01:18:22.543Z,2.27
2019-01-28T01:20:51.561Z,1.97
2019-01-28T01:23:20.632Z,2.50
2019-01-28T01:25:49.647Z,2.30
2019-01-28T01:28:18.651Z,1.93
2019-01-28T01:30:47.667Z,1.80
2019-01-28T01:33:16.719Z,2.10
2019-01-28T01:35:45.724Z,2.10
2019-01-28T01:38:15.115Z,2.10
2019-01-28T01:40:44.133Z,2.87
2019-01-28T01:43:13.161Z,2.17
2019-01-28T01:45:42.206Z,2.27
2019-01-28T01:48:11.515Z,2.73
2019-01-28T01:50:40.538Z,2.63
2019-01-28T01:53:09.868Z,2.13
2019-01-28T01:55:39.201Z,2.60
2019-01-28T01:58:08.233Z,2.33
2019-01-28T02:00:37.619Z,2.93
2019-01-28T02:03:07.035Z,3.00
2019-01-28T02:05:36.385Z,2.83
2019-01-28T02:08:05.611Z,2.20
2019-01-28T02:10:34.897Z,2.20
2019-01-28T02:13:04.269Z,2.37
2019-01-28T02:15:33.285Z,2.67
2019-01-28T02:18:02.359Z,2.40
2019-01-28T02:20:31.428Z,2.90
2019-01-28T02:23:00.431Z,2.37
2019-01-28T02:25:29.787Z,2.37
2019-01-28T02:27:58.801Z,2.50
2019-01-28T02:30:27.796Z,2.23
2019-01-28T02:32:57.168Z,2.30
2019-01-28T02:35:26.186Z,2.07
2019-01-28T02:37:55.605Z,2.63
2019-01-28T02:40:24.652Z,2.77
2019-01-28T02:42:53.663Z,2.70
2019-01-28T02:45:22.702Z,2.77
2019-01-28T02:47:51.725Z,2.60
2019-01-28T02:50:20.715Z,2.47
2019-01-28T02:52:49.715Z,2.70
2019-01-28T02:55:19.283Z,2.13
2019-01-28T02:57:48.410Z,2.60
2019-01-28T03:00:19.959Z,2.20
2019-01-28T03:02:48.985Z,2.30
2019-01-28T03:05:19.063Z,2.27
2019-01-28T03:07:48.256Z,2.33
2019-01-28T03:10:19.835Z,2.60
2019-01-28T03:12:49.080Z,2.13
2019-01-28T03:15:18.610Z,2.50
2019-01-28T03:17:47.779Z,2.43
2019-01-28T03:20:17.247Z,2.20
2019-01-28T03:22:46.877Z,2.40
2019-01-28T03:25:16.663Z,2.13
2019-01-28T03:27:46.077Z,1.97
2019-01-28T03:30:17.432Z,2.60
2019-01-28T03:32:46.769Z,1.70
2019-01-28T03:35:16.019Z,1.90
2019-01-28T03:37:45.056Z,2.57
2019-01-28T03:40:16.962Z,2.27
2019-01-28T03:42:46.606Z,2.17
2019-01-28T03:45:17.421Z,2.20
2019-01-28T03:47:46.477Z,2.00
2019-01-28T03:50:16.889Z,2.30
2019-01-28T03:52:46.881Z,2.43
2019-01-28T03:55:16.487Z,2.10
2019-01-28T03:57:45.601Z,2.37
2019-01-28T04:00:20.142Z,2.13
2019-01-28T04:02:49.169Z,2.23
2019-01-28T04:05:18.199Z,2.43
2019-01-28T04:07:47.233Z,1.93
2019-01-28T04:10:18.605Z,2.30
2019-01-28T04:12:48.025Z,2.30
2019-01-28T04:15:17.900Z,2.13
2019-01-28T04:17:46.956Z,2.17
2019-01-28T04:20:17.522Z,2.07
2019-01-28T04:22:46.566Z,2.07
2019-01-28T04:25:15.581Z,2.47
2019-01-28T04:27:45.304Z,1.97
2019-01-28T04:30:17.107Z,2.03
2019-01-28T04:32:46.440Z,2.40
2019-01-28T04:35:15.473Z,2.23
2019-01-28T04:37:44.848Z,2.30
2019-01-28T04:40:14.126Z,2.40
2019-01-28T04:42:43.596Z,2.43
2019-01-28T04:45:14.626Z,3.00
2019-01-28T04:47:43.787Z,2.20
2019-01-28T04:50:17.253Z,2.90
2019-01-28T04:52:46.291Z,1.73
2019-01-28T04:55:16.111Z,1.70
2019-01-28T04:57:45.152Z,1.90
2019-01-28T05:00:16.754Z,2.70
2019-01-28T05:02:45.854Z,1.80
2019-01-28T05:05:15.046Z,2.33
2019-01-28T05:07:44.162Z,2.33
2019-01-28T05:10:14.984Z,2.10
2019-01-28T05:12:44.377Z,2.07
2019-01-28T05:15:15.032Z,2.03
2019-01-28T05:17:44.123Z,2.30
2019-01-28T05:20:15.158Z,2.40
2019-01-28T05:22:44.587Z,2.17
2019-01-28T05:25:14.603Z,2.00
2019-01-28T05:27:43.622Z,2.13
2019-01-28T05:30:15.668Z,1.97
2019-01-28T05:32:44.988Z,2.27
2019-01-28T05:35:15.290Z,2.40
2019-01-28T05:37:44.305Z,2.40
2019-01-28T05:40:16.011Z,2.37
2019-01-28T05:42:45.135Z,2.33
2019-01-28T05:45:15.274Z,2.83
2019-01-28T05:47:44.302Z,1.70
2019-01-28T05:50:13.574Z,2.37
2019-01-28T05:52:42.638Z,2.20
2019-01-28T05:55:12.620Z,2.77
2019-01-28T05:57:41.746Z,3.10
2019-01-28T06:00:15.411Z,2.87
2019-01-28T06:02:44.434Z,2.77
2019-01-28T06:05:13.543Z,2.23
2019-01-28T06:07:42.645Z,2.97
2019-01-28T06:10:12.099Z,2.47
2019-01-28T06:12:41.116Z,2.53
2019-01-28T06:15:12.501Z,2.40
2019-01-28T06:17:41.853Z,2.20
2019-01-28T06:20:14.413Z,2.57
2019-01-28T06:22:43.920Z,3.00
2019-01-28T06:25:13.055Z,2.30
2019-01-28T06:27:42.092Z,2.33
2019-01-28T06:30:14.870Z,2.77
2019-01-28T06:32:43.935Z,2.33
2019-01-28T06:35:13.062Z,2.70
2019-01-28T06:37:42.511Z,3.23
2019-01-28T06:40:13.120Z,2.43
2019-01-28T06:42:42.142Z,2.20
2019-01-28T06:45:12.274Z,2.43
2019-01-28T06:47:46.875Z,2.87
2019-01-28T06:50:14.514Z,2.97
2019-01-28T06:52:43.837Z,2.67
2019-01-28T06:55:13.540Z,2.67
2019-01-28T06:57:42.619Z,2.13
2019-01-28T07:00:16.419Z,2.47
2019-01-28T07:02:45.404Z,2.43
2019-01-28T07:05:14.486Z,2.57
2019-01-28T07:07:43.506Z,2.47
2019-01-28T07:10:13.374Z,2.00
2019-01-28T07:12:42.366Z,2.40
2019-01-28T07:15:12.608Z,2.17
2019-01-28T07:17:41.621Z,2.40
2019-01-28T07:20:14.531Z,2.50
2019-01-28T07:22:43.806Z,2.33
2019-01-28T07:25:13.170Z,2.70
2019-01-28T07:27:42.202Z,3.00
2019-01-28T07:30:15.123Z,2.30
2019-01-28T07:32:44.144Z,2.77
2019-01-28T07:35:15.092Z,2.60
2019-01-28T07:37:44.439Z,2.40
2019-01-28T07:40:15.052Z,2.90
2019-01-28T07:42:44.377Z,2.80
2019-01-28T07:45:17.376Z,2.63
2019-01-28T07:47:46.382Z,2.53
2019-01-28T07:50:15.806Z,3.33
2019-01-28T07:52:45.281Z,2.43
2019-01-28T07:55:15.239Z,2.60
2019-01-28T07:57:44.250Z,2.80
2019-01-28T08:00:16.680Z,2.90
2019-01-28T08:02:46.076Z,2.70
2019-01-28T08:05:15.829Z,2.50
2019-01-28T08:07:45.175Z,2.57
2019-01-28T08:10:15.766Z,2.60
2019-01-28T08:12:44.882Z,2.40
2019-01-28T08:15:16.574Z,3.03
2019-01-28T08:17:45.797Z,2.10
2019-01-28T08:20:16.347Z,2.53
2019-01-28T08:22:45.490Z,2.60
2019-01-28T08:25:15.975Z,2.30
2019-01-28T08:27:45.642Z,2.47
2019-01-28T08:30:26.622Z,2.70
2019-01-28T08:32:55.912Z,2.73
2019-01-28T08:35:25.484Z,2.93
2019-01-28T08:37:55.136Z,2.37
2019-01-28T08:40:24.372Z,3.20
2019-01-28T08:42:53.652Z,2.70
2019-01-28T08:45:22.659Z,2.30
2019-01-28T08:47:51.660Z,2.83
2019-01-28T08:50:22.120Z,2.30
2019-01-28T08:52:51.545Z,3.00
2019-01-28T08:55:21.836Z,2.43
2019-01-28T08:57:51.422Z,2.33
2019-01-28T09:00:26.124Z,2.90
2019-01-28T09:02:55.154Z,3.13
2019-01-28T09:05:24.206Z,2.63
2019-01-28T09:07:53.487Z,3.27
2019-01-28T09:10:24.842Z,2.50
2019-01-28T09:12:54.172Z,2.80
2019-01-28T09:15:23.272Z,2.70
2019-01-28T09:17:52.478Z,2.93
2019-01-28T09:20:22.526Z,2.47
2019-01-28T09:22:51.635Z,3.17
2019-01-28T09:25:20.839Z,2.67
2019-01-28T09:27:50.184Z,2.93
2019-01-28T09:30:22.038Z,2.70
2019-01-28T09:32:51.127Z,2.90
2019-01-28T09:35:20.413Z,3.30
2019-01-28T09:37:49.485Z,2.70
2019-01-28T09:40:20.224Z,2.03
2019-01-28T09:42:50.560Z,2.70
2019-01-28T09:45:22.080Z,2.50
2019-01-28T09:47:51.104Z,2.60
2019-01-28T09:50:20.417Z,2.27
2019-01-28T09:52:49.841Z,2.70
2019-01-28T09:55:18.992Z,2.23
2019-01-28T09:57:48.138Z,2.80
2019-01-28T10:00:21.316Z,2.57
2019-01-28T10:02:50.356Z,2.63
2019-01-28T10:05:19.673Z,2.03
2019-01-28T10:07:48.710Z,2.67
2019-01-28T10:10:17.866Z,2.53
2019-01-28T10:12:46.888Z,2.60
2019-01-28T10:15:18.013Z,2.17
2019-01-28T10:17:47.094Z,2.37
2019-01-28T10:20:37.382Z,2.33
2019-01-28T10:23:06.468Z,2.20
2019-01-28T10:25:35.518Z,2.30
2019-01-28T10:28:04.666Z,1.90
2019-01-28T10:30:38.469Z,1.90
2019-01-28T10:33:08.436Z,1.90
2019-01-28T10:35:38.127Z,1.90
2019-01-28T10:38:07.633Z,1.85
2019-01-28T10:40:37.577Z,1.90
2019-01-28T10:43:08.166Z,1.90
2019-01-28T10:45:37.186Z,2.03
2019-01-28T10:48:07.364Z,2.30
2019-01-28T10:50:37.057Z,2.57
2019-01-28T10:53:07.204Z,2.17
2019-01-28T10:55:36.210Z,1.83
2019-01-28T10:58:05.790Z,2.13
2019-01-28T11:00:37.143Z,2.30
2019-01-28T11:03:07.912Z,1.90
2019-01-28T11:05:37.082Z,2.07
2019-01-28T11:08:06.704Z,2.10
2019-01-28T11:10:35.797Z,1.93
2019-01-28T11:13:05.359Z,2.20
2019-01-28T11:15:34.633Z,2.13
2019-01-28T11:18:05.327Z,2.10
2019-01-28T11:20:34.803Z,1.93
2019-01-28T11:23:04.350Z,2.27
2019-01-28T11:25:33.782Z,1.70
2019-01-28T11:28:02.959Z,2.07
2019-01-28T11:30:40.672Z,2.10
2019-01-28T11:33:10.470Z,1.90
2019-01-28T11:35:40.045Z,2.30
2019-01-28T11:38:09.348Z,2.40
2019-01-28T11:40:38.593Z,2.03
2019-01-28T11:43:07.795Z,1.13
2019-01-28T11:45:39.435Z,1.17
2019-01-28T11:48:09.057Z,1.40
2019-01-28T11:50:38.090Z,1.40
2019-01-28T11:53:07.130Z,1.53
2019-01-28T11:55:36.154Z,0.90
2019-01-28T11:58:05.440Z,1.20
2019-01-28T12:00:50.505Z,1.20
2019-01-28T12:03:19.540Z,1.30
2019-01-28T12:05:48.841Z,1.27
2019-01-28T12:08:17.896Z,1.00
2019-01-28T12:10:47.391Z,1.27
2019-01-28T12:13:16.810Z,1.32
2019-01-28T12:15:45.862Z,1.27
2019-01-28T12:18:15.636Z,1.27
2019-01-28T12:20:53.192Z,1.50
2019-01-28T12:23:15.848Z,1.57
2019-01-28T12:25:44.934Z,2.05
2019-01-28T12:28:13.995Z,2.02
2019-01-28T12:30:43.340Z,1.80
2019-01-28T12:33:12.765Z,2.03
2019-01-28T12:35:41.760Z,2.10
2019-01-28T12:38:10.826Z,2.30
2019-01-28T12:40:40.141Z,1.70
2019-01-28T12:43:09.174Z,2.03
2019-01-28T12:45:38.450Z,1.97
2019-01-28T12:48:07.794Z,2.10
2019-01-28T12:50:36.846Z,2.10
2019-01-28T12:53:06.143Z,2.37
2019-01-28T12:55:35.172Z,2.40
2019-01-28T12:58:04.803Z,2.50
2019-01-28T13:00:38.836Z,2.53
2019-01-28T13:03:08.138Z,2.10
2019-01-28T13:05:37.897Z,2.43
2019-01-28T13:08:06.949Z,1.73
2019-01-28T13:10:35.963Z,2.07
2019-01-28T13:13:05.426Z,1.83
2019-01-28T13:15:34.917Z,2.87
2019-01-28T13:18:04.547Z,2.20
2019-01-28T13:20:33.612Z,2.10
2019-01-28T13:23:02.712Z,2.10
2019-01-28T13:25:32.924Z,1.97
2019-01-28T13:28:02.007Z,2.13
2019-01-28T13:30:35.269Z,2.43
2019-01-28T13:33:05.624Z,1.90
2019-01-28T13:35:34.686Z,1.87
2019-01-28T13:38:04.056Z,1.90
2019-01-28T13:40:33.151Z,2.23
2019-01-28T13:43:02.542Z,2.20
2019-01-28T13:45:31.639Z,2.33
2019-01-28T13:48:00.957Z,2.17
2019-01-28T13:50:30.174Z,2.60
2019-01-28T13:52:59.855Z,2.33
2019-01-28T13:55:29.168Z,2.43
2019-01-28T13:57:58.238Z,2.70
2019-01-28T14:00:28.333Z,1.80
2019-01-28T14:02:58.085Z,2.30
2019-01-28T14:05:27.136Z,2.60
2019-01-28T14:07:56.849Z,2.30
2019-01-28T14:10:26.683Z,2.47
2019-01-28T14:12:56.053Z,2.03
2019-01-28T14:15:33.423Z,2.33
2019-01-28T14:18:02.480Z,2.03
2019-01-28T14:20:32.545Z,1.83
2019-01-28T14:23:01.629Z,2.00
2019-01-28T14:25:30.746Z,1.87
2019-01-28T14:28:00.072Z,2.00
2019-01-28T14:30:37.988Z,1.70
2019-01-28T14:33:07.702Z,1.73
2019-01-28T14:35:37.666Z,1.20
2019-01-28T14:38:08.103Z,1.30
2019-01-28T14:40:37.676Z,1.40
2019-01-28T14:43:06.902Z,1.30
2019-01-28T14:45:36.754Z,1.43
2019-01-28T14:48:07.096Z,2.00
2019-01-28T14:50:37.040Z,1.63
2019-01-28T14:53:07.154Z,1.57
2019-01-28T14:55:37.449Z,1.40
2019-01-28T14:58:08.535Z,2.27
2019-01-28T15:00:38.588Z,2.13
2019-01-28T15:03:07.974Z,1.80
2019-01-28T15:05:37.585Z,2.20
2019-01-28T15:08:06.985Z,2.00
2019-01-28T15:10:36.571Z,2.60
2019-01-28T15:13:06.178Z,2.00
2019-01-28T15:15:36.758Z,2.27
2019-01-28T15:18:07.646Z,1.90
2019-01-28T15:20:37.035Z,2.37
2019-01-28T15:23:07.358Z,2.27
2019-01-28T15:25:38.191Z,3.03
2019-01-28T15:28:07.748Z,2.33
2019-01-28T15:30:37.214Z,2.43
2019-01-28T15:33:06.460Z,1.90
2019-01-28T15:35:35.532Z,2.23
2019-01-28T15:38:04.952Z,2.10
2019-01-28T15:40:35.195Z,2.00
2019-01-28T15:43:04.235Z,2.37
2019-01-28T15:45:35.707Z,2.03
2019-01-28T15:48:05.394Z,2.30
2019-01-28T15:50:34.456Z,2.30
2019-01-28T15:53:04.039Z,2.37
2019-01-28T15:55:35.473Z,2.10
2019-01-28T15:58:04.814Z,2.07
2019-01-28T16:00:34.407Z,2.03
2019-01-28T16:03:04.544Z,2.40
2019-01-28T16:05:33.577Z,1.87
2019-01-28T16:08:02.653Z,2.70
2019-01-28T16:10:31.682Z,2.70
2019-01-28T16:13:00.706Z,2.10
2019-01-28T16:15:32.743Z,2.07
2019-01-28T16:18:02.117Z,2.70
2019-01-28T16:20:31.115Z,2.70
2019-01-28T16:23:00.538Z,2.93
2019-01-28T16:25:29.544Z,3.13
2019-01-28T16:27:58.613Z,2.60
2019-01-28T16:30:28.372Z,2.63
2019-01-28T16:32:57.579Z,2.47
2019-01-28T16:35:27.239Z,2.80
2019-01-28T16:37:56.412Z,3.10
2019-01-28T16:40:26.634Z,2.47
2019-01-28T16:42:56.062Z,1.20
2019-01-28T16:45:25.279Z,1.40
2019-01-28T16:47:54.555Z,1.53
2019-01-28T16:50:28.587Z,1.20
2019-01-28T16:52:58.107Z,1.33
2019-01-28T16:55:27.431Z,1.10
2019-01-28T16:57:57.249Z,1.83
2019-01-28T17:00:28.757Z,1.73
2019-01-28T17:02:57.763Z,1.80
2019-01-28T17:05:27.548Z,2.60
2019-01-28T17:07:57.245Z,2.90
2019-01-28T17:10:26.384Z,2.40
2019-01-28T17:12:55.409Z,1.60
2019-01-28T17:15:25.316Z,2.43
2019-01-28T17:17:54.390Z,2.50
2019-01-28T17:20:25.448Z,2.27
2019-01-28T17:22:54.672Z,2.20
2019-01-28T17:25:26.390Z,2.77
2019-01-28T17:27:56.130Z,2.20
2019-01-28T17:30:30.811Z,2.70
2019-01-28T17:33:00.248Z,3.10
2019-01-28T17:35:29.310Z,3.33
2019-01-28T17:37:58.405Z,2.83
2019-01-28T17:40:28.024Z,3.43
2019-01-28T17:42:57.465Z,2.80
2019-01-28T17:45:27.892Z,2.90
2019-01-28T17:47:57.128Z,3.17
2019-01-28T17:50:27.123Z,3.20
2019-01-28T17:52:56.241Z,3.33
2019-01-28T17:55:25.609Z,3.30
2019-01-28T17:57:55.244Z,3.10
2019-01-28T18:00:37.634Z,3.40
2019-01-28T18:03:07.048Z,3.30
2019-01-28T18:05:36.376Z,3.23
2019-01-28T18:08:06.639Z,3.07
2019-01-28T18:10:35.755Z,2.90
2019-01-28T18:13:05.945Z,2.83
2019-01-28T18:15:34.961Z,3.10
2019-01-28T18:18:03.994Z,3.13
2019-01-28T18:20:33.341Z,3.57
2019-01-28T18:23:02.896Z,3.50
2019-01-28T18:25:32.652Z,2.63
2019-01-28T18:28:02.102Z,3.10
2019-01-28T18:30:40.043Z,2.57
2019-01-28T18:33:09.801Z,3.27
2019-01-28T18:35:39.208Z,2.60
2019-01-28T18:38:08.959Z,2.97
2019-01-28T18:40:37.999Z,2.73
2019-01-28T18:43:07.416Z,3.10
2019-01-28T18:45:36.654Z,2.80
2019-01-28T18:48:07.403Z,2.50
2019-01-28T18:50:36.553Z,2.63
2019-01-28T18:53:06.155Z,3.07
2019-01-28T18:55:35.541Z,3.10
2019-01-28T18:58:04.961Z,2.60
2019-01-28T19:00:34.239Z,2.73
2019-01-28T19:03:03.946Z,3.03
2019-01-28T19:05:54.971Z,2.80
2019-01-28T19:08:46.771Z,3.07
2019-01-28T19:11:43.850Z,2.70
2019-01-28T19:14:28.005Z,3.10
2019-01-28T19:17:34.362Z,3.10
2019-01-28T19:20:30.168Z,2.83
2019-01-28T19:22:59.603Z,3.40
2019-01-28T19:25:28.660Z,3.20
2019-01-28T19:27:57.700Z,2.90
2019-01-28T19:30:26.708Z,3.00
2019-01-28T19:32:55.777Z,3.50
2019-01-28T19:35:24.822Z,2.93
2019-01-28T19:37:53.837Z,2.80
2019-01-28T19:40:22.870Z,3.10
2019-01-28T19:42:52.141Z,3.00
2019-01-28T19:45:21.597Z,2.70
2019-01-28T19:47:50.774Z,3.03
2019-01-28T19:50:24.401Z,2.93
2019-01-28T19:52:53.443Z,2.97
2019-01-28T19:55:22.681Z,3.10
2019-01-28T19:57:51.838Z,2.53
2019-01-28T20:00:23.419Z,2.87
2019-01-28T20:02:53.044Z,2.87
2019-01-28T20:05:22.085Z,3.57
2019-01-28T20:07:51.264Z,3.03
2019-01-28T20:10:20.659Z,2.77
2019-01-28T20:12:49.750Z,2.97
2019-01-28T20:15:19.928Z,3.70
2019-01-28T20:17:49.387Z,3.37
2019-01-28T20:20:18.896Z,3.10
2019-01-28T20:22:48.406Z,3.23
2019-01-28T20:25:18.147Z,3.50
2019-01-28T20:27:47.145Z,2.80
2019-01-28T20:30:24.529Z,2.40
2019-01-28T20:32:53.938Z,3.27
2019-01-28T20:35:23.249Z,2.93
2019-01-28T20:37:52.615Z,2.80
2019-01-28T20:40:21.777Z,2.93
2019-01-28T20:42:50.882Z,2.90
2019-01-28T20:45:21.559Z,3.10
2019-01-28T20:47:50.643Z,3.47
2019-01-28T20:50:21.806Z,2.97
2019-01-28T20:52:50.886Z,2.80
2019-01-28T20:55:19.975Z,3.40
2019-01-28T20:57:49.066Z,2.70
2019-01-28T21:00:20.243Z,2.77
2019-01-28T21:02:49.271Z,3.33
2019-01-28T21:05:18.984Z,2.50
2019-01-28T21:07:47.986Z,2.57
2019-01-28T21:10:18.507Z,2.60
2019-01-28T21:12:48.509Z,2.80
2019-01-28T21:15:17.648Z,2.93
2019-01-28T21:17:47.351Z,2.80
2019-01-28T21:20:17.626Z,3.10
2019-01-28T21:22:47.007Z,2.80
2019-01-28T21:25:18.599Z,3.40
2019-01-28T21:27:47.615Z,3.23
2019-01-28T21:30:19.854Z,3.50
2019-01-28T21:32:49.588Z,4.20
2019-01-28T21:35:20.951Z,3.77
2019-01-28T21:38:00.416Z,3.50
2019-01-28T21:40:26.403Z,3.03
2019-01-28T21:42:55.847Z,3.50
2019-01-28T21:45:24.924Z,2.93
2019-01-28T21:47:54.399Z,3.27
2019-01-28T21:50:24.961Z,3.43
2019-01-28T21:52:54.350Z,3.00
2019-01-28T21:55:23.410Z,3.30
2019-01-28T21:57:52.447Z,3.30
2019-01-28T22:00:21.973Z,3.33
2019-01-28T22:02:51.018Z,3.33
2019-01-28T22:05:20.163Z,2.80
2019-01-28T22:07:49.279Z,3.60
2019-01-28T22:10:18.311Z,3.20
2019-01-28T22:12:47.495Z,3.53
2019-01-28T22:15:17.190Z,3.00
2019-01-28T22:17:46.302Z,3.23
2019-01-28T22:20:15.711Z,3.10
2019-01-28T22:22:45.049Z,3.50
2019-01-28T22:25:15.003Z,3.43
2019-01-28T22:27:44.200Z,3.10
2019-01-28T22:30:16.193Z,3.70
2019-01-28T22:32:45.203Z,3.60
2019-01-28T22:35:14.369Z,3.30
2019-01-28T22:37:43.797Z,3.17
2019-01-28T22:40:13.666Z,3.47
2019-01-28T22:42:42.678Z,4.10
2019-01-28T22:45:14.377Z,4.00
2019-01-28T22:47:43.837Z,4.30
2019-01-28T22:50:15.145Z,4.57
2019-01-28T22:52:45.201Z,4.07
2019-01-28T22:55:16.101Z,3.77
2019-01-28T22:57:45.110Z,4.30
2019-01-28T23:00:39.561Z,3.93
2019-01-28T23:03:08.941Z,4.63
2019-01-28T23:05:38.359Z,4.17
2019-01-28T23:08:07.465Z,4.70
2019-01-28T23:10:36.695Z,3.93
2019-01-28T23:13:05.983Z,3.50
2019-01-28T23:15:35.017Z,4.47
2019-01-28T23:18:04.199Z,3.67
2019-01-28T23:20:33.238Z,3.83
2019-01-28T23:23:02.633Z,3.60
2019-01-28T23:25:31.704Z,3.70
2019-01-28T23:28:00.721Z,3.43
2019-01-28T23:30:29.728Z,4.40
2019-01-28T23:32:59.120Z,3.63
2019-01-28T23:35:28.269Z,4.03
2019-01-28T23:37:58.045Z,3.70
2019-01-28T23:40:27.129Z,3.80
2019-01-28T23:42:57.688Z,3.47
2019-01-28T23:45:26.708Z,3.87
2019-01-28T23:47:56.047Z,3.70
2019-01-28T23:50:25.104Z,3.73
2019-01-28T23:52:54.117Z,4.17
2019-01-28T23:55:23.145Z,3.47
2019-01-28T23:57:56.829Z,3.77
